createdAt,value
2023-10-30T00:03:42.148Z,10.05
2023-10-30T00:13:45.123Z,10.48
2023-10-30T00:23:49.252Z,11.35
2023-10-30T00:33:52.171Z,12.27
2023-10-30T00:43:56.375Z,11.80
2023-10-30T00:53:59.209Z,10.83
2023-10-30T01:04:03.490Z,11.70
2023-10-30T01:14:06.549Z,11.20
2023-10-30T01:24:11.964Z,11.20
2023-10-30T01:34:14.867Z,14.60
2023-10-30T01:44:19.041Z,12.43
2023-10-30T01:54:22.046Z,9.23
2023-10-30T02:04:26.456Z,13.53
2023-10-30T02:14:31.510Z,10.18
2023-10-30T02:24:38.630Z,12.13
2023-10-30T02:34:45.969Z,12.73
2023-10-30T02:44:48.790Z,13.43
2023-10-30T02:54:53.008Z,10.32
2023-10-30T03:04:55.849Z,10.80
2023-10-30T03:15:00.118Z,11.27
2023-10-30T03:25:03.065Z,9.80
2023-10-30T03:35:08.785Z,11.80
2023-10-30T03:45:11.843Z,10.55
2023-10-30T03:55:16.292Z,12.20
2023-10-30T04:05:19.117Z,8.02
2023-10-30T04:15:23.274Z,10.73
2023-10-30T04:25:27.063Z,12.05
2023-10-30T04:35:31.604Z,11.95
2023-10-30T04:45:34.444Z,10.93
2023-10-30T04:55:38.633Z,7.85
2023-10-30T05:05:41.476Z,10.00
2023-10-30T05:15:45.811Z,9.53
2023-10-30T05:25:48.721Z,10.88
2023-10-30T05:35:56.001Z,11.43
2023-10-30T05:45:58.980Z,10.40
2023-10-30T05:56:03.167Z,11.43
2023-10-30T06:06:07.105Z,6.40
2023-10-30T06:16:15.967Z,7.32
2023-10-30T06:26:18.833Z,5.63
2023-10-30T06:36:23.048Z,9.97
2023-10-30T06:46:26.112Z,9.55
2023-10-30T06:56:30.301Z,7.83
2023-10-30T07:06:33.151Z,6.43
2023-10-30T07:16:45.907Z,6.73
2023-10-30T07:26:56.088Z,8.57
2023-10-30T07:37:00.910Z,6.35
2023-10-30T07:47:03.929Z,4.68
2023-10-30T07:57:09.313Z,7.28
2023-10-30T08:07:12.386Z,4.40
2023-10-30T08:17:16.596Z,5.82
2023-10-30T08:27:19.424Z,6.05
2023-10-30T08:37:23.790Z,6.75
2023-10-30T08:47:26.630Z,8.98
2023-10-30T08:57:30.816Z,4.45
2023-10-30T09:07:34.120Z,3.47
2023-10-30T09:17:38.626Z,2.05
2023-10-30T09:27:41.537Z,1.55
2023-10-30T09:37:45.752Z,4.22
2023-10-30T09:47:49.306Z,3.92
2023-10-30T09:57:54.621Z,7.45
2023-10-30T10:07:58.129Z,2.10
2023-10-30T10:18:05.212Z,1.77
2023-10-30T10:28:11.156Z,1.95
2023-10-30T10:38:18.098Z,1.30
2023-10-30T10:48:22.438Z,2.13
2023-10-30T10:58:36.440Z,0.95
2023-10-30T11:08:47.425Z,1.88
2023-10-30T11:18:54.060Z,2.03
2023-10-30T11:28:56.934Z,4.32
2023-10-30T11:39:11.749Z,0.77
2023-10-30T11:49:15.227Z,1.92
2023-10-30T11:59:19.914Z,1.17
2023-10-30T12:09:24.182Z,1.38
2023-10-30T12:19:28.628Z,1.65
2023-10-30T12:29:33.316Z,1.33
2023-10-30T12:39:41.450Z,2.88
2023-10-30T12:49:45.399Z,1.60
2023-10-30T12:59:49.637Z,0.60
2023-10-30T13:09:52.542Z,1.08
2023-10-30T13:19:56.984Z,1.02
2023-10-30T13:30:01.341Z,2.65
2023-10-30T13:40:07.846Z,1.30
2023-10-30T13:50:11.176Z,1.95
2023-10-30T14:00:16.189Z,3.58
2023-10-30T14:10:19.233Z,6.82
2023-10-30T14:20:23.459Z,1.92
2023-10-30T14:30:27.029Z,5.68
2023-10-30T14:40:31.633Z,4.88
2023-10-30T14:50:34.465Z,2.30
2023-10-30T15:00:38.690Z,5.45
2023-10-30T15:10:41.602Z,8.52
2023-10-30T15:20:45.776Z,3.25
2023-10-30T15:30:52.760Z,5.55
2023-10-30T15:40:56.960Z,12.25
2023-10-30T15:50:59.775Z,4.45
2023-10-30T16:01:04.010Z,10.60
2023-10-30T16:21:16.764Z,3.78
2023-10-30T16:31:19.990Z,7.60
2023-10-30T16:41:24.334Z,6.55
2023-10-30T16:51:27.176Z,3.65
2023-10-30T17:01:31.716Z,3.10
2023-10-30T17:11:34.545Z,4.07
2023-10-30T17:21:38.728Z,5.05
2023-10-30T17:31:42.093Z,3.85
2023-10-30T17:41:46.226Z,5.65
2023-10-30T17:51:49.007Z,7.05
2023-10-30T18:01:56.924Z,8.88
2023-10-30T18:12:00.209Z,10.55
2023-10-30T18:22:05.251Z,6.95
2023-10-30T18:32:23.312Z,8.43
2023-10-30T18:42:31.188Z,7.93
2023-10-30T18:52:49.383Z,7.63
2023-10-30T19:02:54.580Z,11.20
2023-10-30T19:12:57.412Z,6.80
2023-10-30T19:23:04.920Z,8.50
2023-10-30T19:33:07.989Z,7.57
2023-10-30T19:43:12.212Z,8.90
2023-10-30T19:53:15.330Z,4.82
2023-10-30T20:03:20.899Z,5.50
2023-10-30T20:13:24.969Z,2.80
2023-10-30T20:23:29.175Z,7.85
2023-10-30T20:33:32.053Z,3.17
2023-10-30T20:43:36.168Z,6.20
2023-10-30T20:53:39.224Z,2.95
2023-10-30T21:03:43.439Z,5.95
2023-10-30T21:14:08.253Z,7.65
2023-10-30T21:24:12.482Z,5.32
2023-10-30T21:34:15.320Z,7.28
2023-10-30T21:44:19.441Z,4.90
2023-10-30T21:54:23.455Z,7.03
2023-10-30T22:04:28.029Z,4.68
2023-10-30T22:14:30.839Z,6.55
2023-10-30T22:24:35.038Z,3.25
2023-10-30T22:34:38.816Z,2.90
2023-10-30T22:44:42.992Z,2.63
2023-10-30T22:54:46.359Z,3.70
2023-10-30T23:04:50.581Z,1.60
2023-10-30T23:14:53.451Z,2.67
2023-10-30T23:24:57.643Z,2.03
2023-10-30T23:35:00.806Z,0.88
2023-10-30T23:45:05.950Z,2.72
2023-10-30T23:55:09.502Z,2.38
